Herron, Michigan
Current Conditions -  °F | °C
As of 7:54 PM on Sunday 21 Dec 2014 (Local Time) from KAPN Reporting Station
Overcast Overcast  
Wind Chill: 24°   Ceiling: 4900
Heat Index: 30°   Visibility: 8mi
Dew Point: 27°   Wind: 6mph
Humidity: 88%   Direction: 140°SE
Pressure: 30.19"   Gusts: NA
Location:  45.02°N, 83.65°W
Report Text: KAPN 220054Z AUTO 14005KT 8SM OVC049 M01/M03 A3019 RMK AO2 SLP233 T10111028
Loading
Personal Weather Stations






























Interactive Weather Map New forecast layout! Learn more

10-Day Weather Forecast

Advertisements
Track Severe Weather on mobile